Aérodrome :
LOGIN :

S'inscrire | Disclaimer

   EN    FR    IT 

 










Légende :    VFR   VFR Marginal   IFR   IFR Intensif   IFR Très Intensif
Visi : 
Plafond : 
>= 8 km
>= 3000ft
5 à 8 km
1000 à 3000 ft
1500m à 5 km
500 à 1000 ft
800 à 1500m
200 à 500 ft
< 800m
< 200 ft
Symboles :   Orages  Brouillard  Fortes neiges  Fortes précipitations  Vent > 20 kt
SIGMETs :   Divers  Orages  Givrage  Turbulence  Onde Orograph.  Cendres Volcan.







- Altitude de l'aérodrome : 39 ft
- Code IATA : ANR


EBAW - Anvers / Antwerpen Deurne

DERNIER METAR :
  • 161450Z 23007KT 190V260 CAVOK 14/03 Q1025 NOSIG

METARs EXPIRÉS :
  • 161420Z 23008KT 200V260 CAVOK 15/04 Q1025 NOSIG
  • 161350Z 21008KT 180V240 CAVOK 15/04 Q1025 NOSIG
  • 161320Z 22007KT 180V250 CAVOK 14/04 Q1025 NOSIG
  • 161250Z 20008KT 180V240 CAVOK 14/04 Q1025 NOSIG
  • 161220Z 21007KT CAVOK 13/04 Q1026 NOSIG
  • 161150Z 23007KT CAVOK 12/03 Q1026 NOSIG

TAF TAF EBAW
Valide du 16 à 15h jusqu'au 17 à 00h UTC


161420Z 1615/1624 21005KT CAVOK
Pas de NOTAMs connus pour ce terrain.



MET'MAP, la Météo Aéronautique d'un coup d'oeil ! - Copyright ORBIFLY Décembre 2007 - Disclaimer

ORBIFLY MET'MAP TEAM :

Programmation & Développement : Alexandra Zaïnal
Conception & Développement : Baudouin d'Aumeries
Co-Programmation & Développement : Marc-Olivier Méhu
Soutien technique & logistique : Manuel Goepfert

Contact : metmap@orbifly.com




SOURCES & CREDITS :

   NOAA